sensor_id;sensor_type;location;lat;lon;timestamp;pressure;altitude;pressure_sealevel;temperature;humidity
76627;BME280;65519;53.230;10.390;2023-07-13T00:01:12;100919.03;;;17.17;88.56
76627;BME280;65519;53.230;10.390;2023-07-13T00:03:38;100918.91;;;17.22;87.99
76627;BME280;65519;53.230;10.390;2023-07-13T00:06:07;100919.84;;;17.18;88.26
76627;BME280;65519;53.230;10.390;2023-07-13T00:08:33;100919.66;;;17.14;87.93
76627;BME280;65519;53.230;10.390;2023-07-13T00:11:00;100921.28;;;17.15;87.65
76627;BME280;65519;53.230;10.390;2023-07-13T00:13:26;100923.13;;;17.20;87.28
76627;BME280;65519;53.230;10.390;2023-07-13T00:15:52;100928.22;;;17.12;87.56
76627;BME280;65519;53.230;10.390;2023-07-13T00:18:19;100919.44;;;17.10;87.43
76627;BME280;65519;53.230;10.390;2023-07-13T00:20:45;100918.75;;;17.05;87.34
76627;BME280;65519;53.230;10.390;2023-07-13T00:23:11;100920.25;;;17.11;87.34
76627;BME280;65519;53.230;10.390;2023-07-13T00:25:37;100925.38;;;17.18;86.91
76627;BME280;65519;53.230;10.390;2023-07-13T00:28:02;100921.97;;;17.21;86.82
76627;BME280;65519;53.230;10.390;2023-07-13T00:30:29;100927.81;;;17.19;85.73
76627;BME280;65519;53.230;10.390;2023-07-13T00:32:56;100919.66;;;17.14;85.98
76627;BME280;65519;53.230;10.390;2023-07-13T00:35:22;100919.56;;;17.19;85.68
76627;BME280;65519;53.230;10.390;2023-07-13T00:37:48;100924.34;;;17.00;86.59
76627;BME280;65519;53.230;10.390;2023-07-13T00:40:15;100920.97;;;17.03;86.57
76627;BME280;65519;53.230;10.390;2023-07-13T00:47:47;100927.00;;;17.05;85.95
76627;BME280;65519;53.230;10.390;2023-07-13T00:50:15;100922.09;;;17.02;87.26
76627;BME280;65519;53.230;10.390;2023-07-13T00:52:44;100912.84;;;16.98;85.95
76627;BME280;65519;53.230;10.390;2023-07-13T00:55:11;100927.72;;;16.83;86.17
76627;BME280;65519;53.230;10.390;2023-07-13T00:57:38;100929.22;;;16.89;85.73
76627;BME280;65519;53.230;10.390;2023-07-13T01:00:07;100930.78;;;16.95;85.30
76627;BME280;65519;53.230;10.390;2023-07-13T01:02:37;100933.22;;;16.97;85.55
76627;BME280;65519;53.230;10.390;2023-07-13T01:05:18;100935.75;;;16.79;85.64
76627;BME280;65519;53.230;10.390;2023-07-13T01:07:44;100936.78;;;16.84;85.01
76627;BME280;65519;53.230;10.390;2023-07-13T01:10:11;100932.91;;;16.85;84.21
76627;BME280;65519;53.230;10.390;2023-07-13T01:12:37;100932.28;;;16.88;84.88
76627;BME280;65519;53.230;10.390;2023-07-13T01:15:04;100929.03;;;16.72;85.04
76627;BME280;65519;53.230;10.390;2023-07-13T01:17:30;100920.47;;;16.73;84.49
76627;BME280;65519;53.230;10.390;2023-07-13T01:19:56;100922.09;;;16.74;84.53
76627;BME280;65519;53.230;10.390;2023-07-13T01:22:22;100930.06;;;16.76;84.24
76627;BME280;65519;53.230;10.390;2023-07-13T01:24:51;100933.72;;;16.71;84.43
76627;BME280;65519;53.230;10.390;2023-07-13T01:27:21;100935.88;;;16.56;85.33
76627;BME280;65519;53.230;10.390;2023-07-13T01:29:51;100934.66;;;16.48;84.95
76627;BME280;65519;53.230;10.390;2023-07-13T01:32:21;100937.94;;;16.50;85.22
76627;BME280;65519;53.230;10.390;2023-07-13T01:34:49;100940.25;;;16.43;84.63
76627;BME280;65519;53.230;10.390;2023-07-13T01:37:16;100932.41;;;16.50;84.20
76627;BME280;65519;53.230;10.390;2023-07-13T01:39:42;100930.78;;;16.49;84.93
76627;BME280;65519;53.230;10.390;2023-07-13T01:42:08;100932.19;;;16.47;84.11
76627;BME280;65519;53.230;10.390;2023-07-13T01:44:33;100936.44;;;16.25;83.59
76627;BME280;65519;53.230;10.390;2023-07-13T01:47:01;100940.50;;;16.28;83.69
76627;BME280;65519;53.230;10.390;2023-07-13T01:49:26;100937.19;;;16.12;83.60
76627;BME280;65519;53.230;10.390;2023-07-13T01:51:52;100946.72;;;16.20;84.57
76627;BME280;65519;53.230;10.390;2023-07-13T01:54:17;100938.88;;;16.27;84.59
76627;BME280;65519;53.230;10.390;2023-07-13T01:56:43;100940.75;;;16.13;83.35
76627;BME280;65519;53.230;10.390;2023-07-13T01:59:09;100943.66;;;16.02;84.93
76627;BME280;65519;53.230;10.390;2023-07-13T02:01:34;100943.75;;;15.97;84.89
76627;BME280;65519;53.230;10.390;2023-07-13T02:04:00;100941.38;;;16.10;84.09
76627;BME280;65519;53.230;10.390;2023-07-13T02:06:27;100941.59;;;15.94;84.42
76627;BME280;65519;53.230;10.390;2023-07-13T02:08:54;100937.50;;;15.92;84.64
76627;BME280;65519;53.230;10.390;2023-07-13T02:11:20;100942.25;;;16.05;83.61
76627;BME280;65519;53.230;10.390;2023-07-13T02:13:45;100941.88;;;16.12;83.12
76627;BME280;65519;53.230;10.390;2023-07-13T02:16:11;100951.44;;;16.00;83.91
76627;BME280;65519;53.230;10.390;2023-07-13T02:18:36;100946.13;;;16.04;83.69
76627;BME280;65519;53.230;10.390;2023-07-13T02:21:02;100945.75;;;16.11;83.50
76627;BME280;65519;53.230;10.390;2023-07-13T02:23:28;100952.91;;;15.93;84.76
76627;BME280;65519;53.230;10.390;2023-07-13T02:25:56;100951.09;;;16.02;83.67
76627;BME280;65519;53.230;10.390;2023-07-13T02:28:21;100944.06;;;15.96;83.41
76627;BME280;65519;53.230;10.390;2023-07-13T02:30:47;100946.94;;;16.04;83.66
76627;BME280;65519;53.230;10.390;2023-07-13T02:33:12;100955.72;;;16.06;82.54
76627;BME280;65519;53.230;10.390;2023-07-13T02:35:38;100949.94;;;15.89;82.34
76627;BME280;65519;53.230;10.390;2023-07-13T02:38:03;100947.69;;;15.91;83.57
76627;BME280;65519;53.230;10.390;2023-07-13T02:40:30;100946.06;;;15.90;83.76
76627;BME280;65519;53.230;10.390;2023-07-13T02:42:59;100948.22;;;15.93;83.41
76627;BME280;65519;53.230;10.390;2023-07-13T02:45:25;100945.63;;;15.83;83.22
76627;BME280;65519;53.230;10.390;2023-07-13T02:47:50;100947.69;;;15.91;83.27
76627;BME280;65519;53.230;10.390;2023-07-13T02:50:16;100945.72;;;15.78;83.29
76627;BME280;65519;53.230;10.390;2023-07-13T02:52:42;100954.09;;;15.87;83.03
76627;BME280;65519;53.230;10.390;2023-07-13T02:55:08;100947.09;;;15.94;82.95
76627;BME280;65519;53.230;10.390;2023-07-13T02:57:33;100941.81;;;15.79;82.26
76627;BME280;65519;53.230;10.390;2023-07-13T03:00:00;100946.44;;;15.84;82.70
76627;BME280;65519;53.230;10.390;2023-07-13T03:02:26;100948.38;;;15.64;83.08
76627;BME280;65519;53.230;10.390;2023-07-13T03:04:55;100952.63;;;15.57;83.68
76627;BME280;65519;53.230;10.390;2023-07-13T03:07:20;100960.34;;;15.55;83.83
76627;BME280;65519;53.230;10.390;2023-07-13T03:09:49;100962.53;;;15.53;83.44
76627;BME280;65519;53.230;10.390;2023-07-13T03:12:18;100961.84;;;15.66;82.96
76627;BME280;65519;53.230;10.390;2023-07-13T03:14:44;100962.41;;;15.63;82.52
76627;BME280;65519;53.230;10.390;2023-07-13T03:17:09;100954.75;;;15.60;82.83
76627;BME280;65519;53.230;10.390;2023-07-13T03:19:38;100960.19;;;15.65;82.89
76627;BME280;65519;53.230;10.390;2023-07-13T03:22:04;100948.53;;;15.49;83.91
76627;BME280;65519;53.230;10.390;2023-07-13T03:24:29;100954.47;;;15.38;83.46
76627;BME280;65519;53.230;10.390;2023-07-13T03:26:56;100953.31;;;15.44;83.00
76627;BME280;65519;53.230;10.390;2023-07-13T03:29:22;100947.97;;;15.52;83.44
76627;BME280;65519;53.230;10.390;2023-07-13T03:31:49;100956.50;;;15.51;82.73
76627;BME280;65519;53.230;10.390;2023-07-13T03:34:14;100957.59;;;15.50;83.56
76627;BME280;65519;53.230;10.390;2023-07-13T03:36:40;100958.50;;;15.45;83.80
76627;BME280;65519;53.230;10.390;2023-07-13T03:39:09;100953.88;;;15.41;83.88
76627;BME280;65519;53.230;10.390;2023-07-13T03:41:42;100961.25;;;15.45;84.67
76627;BME280;65519;53.230;10.390;2023-07-13T03:44:07;100960.38;;;15.26;83.73
76627;BME280;65519;53.230;10.390;2023-07-13T03:46:33;100961.72;;;15.28;83.61
76627;BME280;65519;53.230;10.390;2023-07-13T03:48:59;100963.50;;;15.19;84.41
76627;BME280;65519;53.230;10.390;2023-07-13T03:51:24;100964.19;;;15.06;84.61
76627;BME280;65519;53.230;10.390;2023-07-13T03:53:50;100974.59;;;15.09;84.50
76627;BME280;65519;53.230;10.390;2023-07-13T03:56:18;100966.78;;;15.21;84.69
76627;BME280;65519;53.230;10.390;2023-07-13T03:58:49;100963.91;;;15.31;83.83
76627;BME280;65519;53.230;10.390;2023-07-13T04:01:21;100963.13;;;15.26;84.55
76627;BME280;65519;53.230;10.390;2023-07-13T04:03:47;100955.66;;;15.31;83.96
76627;BME280;65519;53.230;10.390;2023-07-13T04:06:20;100958.81;;;15.44;83.90
76627;BME280;65519;53.230;10.390;2023-07-13T04:08:55;100967.91;;;15.39;84.05
76627;BME280;65519;53.230;10.390;2023-07-13T04:11:22;100955.53;;;15.42;84.08
76627;BME280;65519;53.230;10.390;2023-07-13T04:13:48;100958.31;;;15.37;84.35
76627;BME280;65519;53.230;10.390;2023-07-13T04:16:15;100962.13;;;15.41;83.93
76627;BME280;65519;53.230;10.390;2023-07-13T04:18:40;100968.72;;;15.40;83.77
76627;BME280;65519;53.230;10.390;2023-07-13T04:21:06;100969.41;;;15.50;84.98
76627;BME280;65519;53.230;10.390;2023-07-13T04:23:32;100967.19;;;15.52;84.73
76627;BME280;65519;53.230;10.390;2023-07-13T04:25:57;100967.91;;;15.63;84.47
76627;BME280;65519;53.230;10.390;2023-07-13T04:28:24;100969.16;;;15.70;84.19
76627;BME280;65519;53.230;10.390;2023-07-13T04:30:50;100974.13;;;15.68;83.83
76627;BME280;65519;53.230;10.390;2023-07-13T04:33:17;100967.75;;;15.73;84.17
76627;BME280;65519;53.230;10.390;2023-07-13T04:35:43;100971.28;;;15.79;83.89
76627;BME280;65519;53.230;10.390;2023-07-13T04:38:09;100969.59;;;15.59;84.01
76627;BME280;65519;53.230;10.390;2023-07-13T04:40:36;100974.59;;;15.57;83.49
76627;BME280;65519;53.230;10.390;2023-07-13T04:43:02;100967.47;;;15.56;84.04
76627;BME280;65519;53.230;10.390;2023-07-13T04:45:28;100963.09;;;15.50;84.58
76627;BME280;65519;53.230;10.390;2023-07-13T04:47:53;100955.38;;;15.57;83.99
76627;BME280;65519;53.230;10.390;2023-07-13T04:50:19;100947.69;;;15.54;83.72
76627;BME280;65519;53.230;10.390;2023-07-13T04:52:50;100959.09;;;15.66;83.59
76627;BME280;65519;53.230;10.390;2023-07-13T04:55:16;100954.56;;;15.75;83.07
76627;BME280;65519;53.230;10.390;2023-07-13T04:57:41;100959.47;;;15.78;82.68
76627;BME280;65519;53.230;10.390;2023-07-13T05:00:07;100954.63;;;15.89;83.05
76627;BME280;65519;53.230;10.390;2023-07-13T05:02:33;100956.03;;;15.86;82.46
76627;BME280;65519;53.230;10.390;2023-07-13T05:05:00;100950.97;;;15.93;82.13
76627;BME280;65519;53.230;10.390;2023-07-13T05:07:26;100947.03;;;15.99;81.79
76627;BME280;65519;53.230;10.390;2023-07-13T05:09:52;100961.28;;;16.01;81.26
76627;BME280;65519;53.230;10.390;2023-07-13T05:12:17;100954.19;;;16.00;81.24
76627;BME280;65519;53.230;10.390;2023-07-13T05:14:43;100948.81;;;16.09;81.14
76627;BME280;65519;53.230;10.390;2023-07-13T05:17:09;100948.59;;;16.05;81.04
76627;BME280;65519;53.230;10.390;2023-07-13T05:19:35;100963.28;;;16.15;80.63
76627;BME280;65519;53.230;10.390;2023-07-13T05:22:00;100960.22;;;16.16;80.40
76627;BME280;65519;53.230;10.390;2023-07-13T05:24:26;100966.16;;;16.23;80.40
76627;BME280;65519;53.230;10.390;2023-07-13T05:26:52;100970.84;;;16.23;79.74
76627;BME280;65519;53.230;10.390;2023-07-13T05:29:19;100975.97;;;16.29;80.14
76627;BME280;65519;53.230;10.390;2023-07-13T05:31:44;100969.50;;;16.39;79.11
76627;BME280;65519;53.230;10.390;2023-07-13T05:34:10;100967.84;;;16.38;79.85
76627;BME280;65519;53.230;10.390;2023-07-13T05:36:35;100969.84;;;16.51;79.07
76627;BME280;65519;53.230;10.390;2023-07-13T05:39:03;100979.91;;;16.56;78.56
76627;BME280;65519;53.230;10.390;2023-07-13T05:41:28;100980.66;;;16.61;78.06
76627;BME280;65519;53.230;10.390;2023-07-13T05:43:54;100976.72;;;16.67;77.37
76627;BME280;65519;53.230;10.390;2023-07-13T05:46:19;100978.16;;;16.78;76.89
76627;BME280;65519;53.230;10.390;2023-07-13T05:48:45;100979.81;;;16.79;77.09
76627;BME280;65519;53.230;10.390;2023-07-13T05:51:10;100983.69;;;16.78;76.69
76627;BME280;65519;53.230;10.390;2023-07-13T05:53:36;100992.38;;;16.86;77.09
76627;BME280;65519;53.230;10.390;2023-07-13T05:56:01;100995.34;;;17.03;76.88
76627;BME280;65519;53.230;10.390;2023-07-13T05:58:27;100999.41;;;16.92;76.40
76627;BME280;65519;53.230;10.390;2023-07-13T06:01:04;100998.41;;;17.01;76.64
76627;BME280;65519;53.230;10.390;2023-07-13T06:03:30;100988.16;;;16.88;78.00
76627;BME280;65519;53.230;10.390;2023-07-13T06:05:55;100995.13;;;16.86;78.20
76627;BME280;65519;53.230;10.390;2023-07-13T06:08:21;100996.88;;;16.95;77.53
76627;BME280;65519;53.230;10.390;2023-07-13T06:10:46;100992.28;;;17.04;77.68
76627;BME280;65519;53.230;10.390;2023-07-13T06:13:12;100997.56;;;17.01;77.41
76627;BME280;65519;53.230;10.390;2023-07-13T06:15:37;100999.84;;;17.12;77.26
76627;BME280;65519;53.230;10.390;2023-07-13T06:18:03;100998.91;;;17.03;77.74
76627;BME280;65519;53.230;10.390;2023-07-13T06:20:29;101007.88;;;17.09;77.11
76627;BME280;65519;53.230;10.390;2023-07-13T06:22:54;101007.38;;;17.21;77.56
76627;BME280;65519;53.230;10.390;2023-07-13T06:25:20;101010.13;;;17.21;76.68
76627;BME280;65519;53.230;10.390;2023-07-13T06:27:45;101019.66;;;17.28;76.83
76627;BME280;65519;53.230;10.390;2023-07-13T06:30:11;101013.50;;;17.31;77.57
76627;BME280;65519;53.230;10.390;2023-07-13T06:32:37;101024.53;;;17.31;76.89
76627;BME280;65519;53.230;10.390;2023-07-13T06:35:03;101025.13;;;17.42;77.61
76627;BME280;65519;53.230;10.390;2023-07-13T06:37:29;101031.91;;;17.49;77.05
76627;BME280;65519;53.230;10.390;2023-07-13T06:39:54;101032.81;;;17.45;76.13
76627;BME280;65519;53.230;10.390;2023-07-13T06:42:20;101039.75;;;17.42;76.88
76627;BME280;65519;53.230;10.390;2023-07-13T06:44:45;101025.66;;;17.58;76.15
76627;BME280;65519;53.230;10.390;2023-07-13T06:47:11;101018.13;;;17.63;76.14
76627;BME280;65519;53.230;10.390;2023-07-13T06:49:36;101031.78;;;17.82;75.01
76627;BME280;65519;53.230;10.390;2023-07-13T06:52:02;101030.47;;;17.79;74.65
76627;BME280;65519;53.230;10.390;2023-07-13T06:54:27;101023.09;;;17.75;75.05
76627;BME280;65519;53.230;10.390;2023-07-13T06:56:53;101034.13;;;17.88;75.38
76627;BME280;65519;53.230;10.390;2023-07-13T06:59:19;101039.94;;;17.87;74.30
76627;BME280;65519;53.230;10.390;2023-07-13T07:01:44;101038.41;;;17.95;73.84
76627;BME280;65519;53.230;10.390;2023-07-13T07:04:10;101045.16;;;17.88;73.81
76627;BME280;65519;53.230;10.390;2023-07-13T07:06:35;101040.59;;;18.06;73.93
76627;BME280;65519;53.230;10.390;2023-07-13T07:09:01;101037.53;;;18.08;73.98
76627;BME280;65519;53.230;10.390;2023-07-13T07:11:26;101040.16;;;18.27;71.75
76627;BME280;65519;53.230;10.390;2023-07-13T07:13:52;101031.88;;;18.27;72.34
76627;BME280;65519;53.230;10.390;2023-07-13T07:16:19;101034.69;;;18.13;72.98
76627;BME280;65519;53.230;10.390;2023-07-13T07:18:46;101039.13;;;18.22;72.35
76627;BME280;65519;53.230;10.390;2023-07-13T07:21:12;101035.28;;;18.46;71.14
76627;BME280;65519;53.230;10.390;2023-07-13T07:23:38;101028.16;;;18.53;71.19
76627;BME280;65519;53.230;10.390;2023-07-13T07:26:04;101043.91;;;18.53;70.55
76627;BME280;65519;53.230;10.390;2023-07-13T07:28:30;101029.78;;;18.68;69.67
76627;BME280;65519;53.230;10.390;2023-07-13T07:30:57;101032.91;;;18.75;69.50
76627;BME280;65519;53.230;10.390;2023-07-13T07:33:24;101029.28;;;18.97;69.45
76627;BME280;65519;53.230;10.390;2023-07-13T07:35:50;101035.50;;;19.03;68.88
76627;BME280;65519;53.230;10.390;2023-07-13T07:38:16;101043.97;;;19.06;69.13
76627;BME280;65519;53.230;10.390;2023-07-13T07:40:41;101043.72;;;18.94;67.48
76627;BME280;65519;53.230;10.390;2023-07-13T07:43:09;101036.13;;;19.00;67.69
76627;BME280;65519;53.230;10.390;2023-07-13T07:45:35;101042.78;;;18.99;67.61
76627;BME280;65519;53.230;10.390;2023-07-13T07:48:02;101042.63;;;19.04;67.88
76627;BME280;65519;53.230;10.390;2023-07-13T07:50:29;101037.03;;;18.86;68.13
76627;BME280;65519;53.230;10.390;2023-07-13T07:52:55;101036.47;;;19.07;68.67
76627;BME280;65519;53.230;10.390;2023-07-13T07:55:24;101046.19;;;18.95;68.26
76627;BME280;65519;53.230;10.390;2023-07-13T07:57:51;101048.66;;;19.06;67.87
76627;BME280;65519;53.230;10.390;2023-07-13T08:00:16;101050.19;;;19.12;68.19
76627;BME280;65519;53.230;10.390;2023-07-13T08:02:43;101050.44;;;19.02;67.96
76627;BME280;65519;53.230;10.390;2023-07-13T08:05:09;101055.81;;;19.07;66.55
76627;BME280;65519;53.230;10.390;2023-07-13T08:07:36;101047.91;;;19.14;65.77
76627;BME280;65519;53.230;10.390;2023-07-13T08:10:02;101041.19;;;19.06;65.73
76627;BME280;65519;53.230;10.390;2023-07-13T08:12:27;101045.91;;;19.06;65.13
76627;BME280;65519;53.230;10.390;2023-07-13T08:14:53;101055.66;;;19.03;65.52
76627;BME280;65519;53.230;10.390;2023-07-13T08:17:26;101044.94;;;19.02;65.69
76627;BME280;65519;53.230;10.390;2023-07-13T08:19:52;101049.78;;;19.05;65.80
76627;BME280;65519;53.230;10.390;2023-07-13T08:22:17;101056.53;;;19.12;66.18
76627;BME280;65519;53.230;10.390;2023-07-13T08:24:43;101052.75;;;19.08;65.07
76627;BME280;65519;53.230;10.390;2023-07-13T08:27:11;101045.66;;;18.93;65.49
76627;BME280;65519;53.230;10.390;2023-07-13T08:29:37;101056.41;;;19.26;64.95
76627;BME280;65519;53.230;10.390;2023-07-13T08:32:05;101049.97;;;19.39;63.51
76627;BME280;65519;53.230;10.390;2023-07-13T08:34:35;101046.31;;;19.52;62.73
76627;BME280;65519;53.230;10.390;2023-07-13T08:37:00;101055.94;;;19.63;61.22
76627;BME280;65519;53.230;10.390;2023-07-13T08:39:26;101050.41;;;19.63;62.00
76627;BME280;65519;53.230;10.390;2023-07-13T08:42:00;101044.25;;;19.66;61.58
76627;BME280;65519;53.230;10.390;2023-07-13T08:44:46;101049.59;;;19.72;61.34
76627;BME280;65519;53.230;10.390;2023-07-13T08:47:15;101050.94;;;19.83;60.60
76627;BME280;65519;53.230;10.390;2023-07-13T08:49:42;101049.78;;;19.66;60.68
76627;BME280;65519;53.230;10.390;2023-07-13T08:52:31;101051.53;;;19.62;60.16
76627;BME280;65519;53.230;10.390;2023-07-13T08:54:56;101047.44;;;19.51;60.35
76627;BME280;65519;53.230;10.390;2023-07-13T08:57:33;101046.69;;;19.68;60.30
76627;BME280;65519;53.230;10.390;2023-07-13T08:59:59;101037.75;;;19.80;60.68
76627;BME280;65519;53.230;10.390;2023-07-13T09:04:59;101045.25;;;19.79;60.51
76627;BME280;65519;53.230;10.390;2023-07-13T09:10:41;101047.97;;;19.71;60.66
76627;BME280;65519;53.230;10.390;2023-07-13T09:13:29;101042.31;;;19.76;60.06
76627;BME280;65519;53.230;10.390;2023-07-13T09:15:59;101046.59;;;19.99;60.83
76627;BME280;65519;53.230;10.390;2023-07-13T09:18:36;101033.75;;;20.12;60.40
76627;BME280;65519;53.230;10.390;2023-07-13T09:21:08;101037.47;;;20.16;59.28
76627;BME280;65519;53.230;10.390;2023-07-13T09:23:36;101048.22;;;20.26;58.45
76627;BME280;65519;53.230;10.390;2023-07-13T09:28:41;101026.94;;;20.44;57.89
76627;BME280;65519;53.230;10.390;2023-07-13T09:31:16;101032.59;;;20.56;58.70
76627;BME280;65519;53.230;10.390;2023-07-13T09:33:43;101026.06;;;20.69;57.01
76627;BME280;65519;53.230;10.390;2023-07-13T09:36:19;101031.09;;;20.84;56.42
76627;BME280;65519;53.230;10.390;2023-07-13T09:38:45;101037.44;;;20.85;56.48
76627;BME280;65519;53.230;10.390;2023-07-13T09:41:36;101026.50;;;20.88;56.52
76627;BME280;65519;53.230;10.390;2023-07-13T09:46:34;101031.59;;;20.69;56.23
76627;BME280;65519;53.230;10.390;2023-07-13T09:48:59;101026.91;;;20.35;56.39
76627;BME280;65519;53.230;10.390;2023-07-13T09:51:25;101040.09;;;20.47;57.56
76627;BME280;65519;53.230;10.390;2023-07-13T09:53:50;101039.16;;;20.43;58.06
76627;BME280;65519;53.230;10.390;2023-07-13T09:56:21;101053.75;;;20.26;58.36
76627;BME280;65519;53.230;10.390;2023-07-13T09:58:47;101051.13;;;20.12;59.77
76627;BME280;65519;53.230;10.390;2023-07-13T10:01:12;101058.53;;;19.68;63.46
76627;BME280;65519;53.230;10.390;2023-07-13T10:03:52;101067.63;;;19.60;64.24
76627;BME280;65519;53.230;10.390;2023-07-13T10:06:20;101076.75;;;19.61;64.96
76627;BME280;65519;53.230;10.390;2023-07-13T10:08:53;101076.25;;;19.59;64.37
76627;BME280;65519;53.230;10.390;2023-07-13T10:11:27;101064.88;;;19.69;64.12
76627;BME280;65519;53.230;10.390;2023-07-13T10:14:16;101063.66;;;19.92;63.60
76627;BME280;65519;53.230;10.390;2023-07-13T10:16:45;101044.81;;;20.20;62.58
76627;BME280;65519;53.230;10.390;2023-07-13T10:19:15;101054.44;;;20.49;61.71
76627;BME280;65519;53.230;10.390;2023-07-13T10:22:09;101049.56;;;20.63;59.36
76627;BME280;65519;53.230;10.390;2023-07-13T10:24:39;101038.44;;;20.80;58.83
76627;BME280;65519;53.230;10.390;2023-07-13T10:27:19;101043.81;;;20.85;58.22
76627;BME280;65519;53.230;10.390;2023-07-13T10:32:34;101048.88;;;21.38;57.07
76627;BME280;65519;53.230;10.390;2023-07-13T10:35:01;101034.75;;;21.61;55.13
76627;BME280;65519;53.230;10.390;2023-07-13T10:37:43;101033.53;;;21.70;53.94
76627;BME280;65519;53.230;10.390;2023-07-13T10:40:15;101042.41;;;21.55;54.69
76627;BME280;65519;53.230;10.390;2023-07-13T10:42:45;101037.63;;;21.35;53.71
76627;BME280;65519;53.230;10.390;2023-07-13T10:45:19;101041.16;;;21.44;54.10
76627;BME280;65519;53.230;10.390;2023-07-13T10:47:45;101035.56;;;21.61;53.72
76627;BME280;65519;53.230;10.390;2023-07-13T10:50:18;101039.25;;;21.95;53.54
76627;BME280;65519;53.230;10.390;2023-07-13T10:52:49;101036.19;;;21.88;51.79
76627;BME280;65519;53.230;10.390;2023-07-13T10:58:21;101044.66;;;21.91;51.41
76627;BME280;65519;53.230;10.390;2023-07-13T11:03:30;101035.91;;;22.31;48.90
76627;BME280;65519;53.230;10.390;2023-07-13T11:08:51;101031.38;;;22.26;49.34
76627;BME280;65519;53.230;10.390;2023-07-13T11:18:48;101042.03;;;21.95;48.50
76627;BME280;65519;53.230;10.390;2023-07-13T11:21:26;101044.66;;;21.91;49.88
76627;BME280;65519;53.230;10.390;2023-07-13T11:23:54;101039.00;;;22.29;49.30
76627;BME280;65519;53.230;10.390;2023-07-13T11:31:53;101043.44;;;22.63;47.30
76627;BME280;65519;53.230;10.390;2023-07-13T11:34:30;101036.25;;;22.83;46.65
76627;BME280;65519;53.230;10.390;2023-07-13T11:36:58;101026.88;;;22.87;45.60
76627;BME280;65519;53.230;10.390;2023-07-13T11:39:36;101029.75;;;22.79;46.04
76627;BME280;65519;53.230;10.390;2023-07-13T11:42:05;101037.97;;;22.75;46.06
76627;BME280;65519;53.230;10.390;2023-07-13T11:44:34;101034.34;;;23.08;46.52
76627;BME280;65519;53.230;10.390;2023-07-13T11:47:20;101040.75;;;23.20;46.00
76627;BME280;65519;53.230;10.390;2023-07-13T11:49:52;101036.81;;;23.21;45.60
76627;BME280;65519;53.230;10.390;2023-07-13T11:52:32;101041.03;;;23.52;44.79
76627;BME280;65519;53.230;10.390;2023-07-13T11:55:00;101034.88;;;23.58;44.45
76627;BME280;65519;53.230;10.390;2023-07-13T11:59:53;101049.94;;;23.70;43.30
76627;BME280;65519;53.230;10.390;2023-07-13T12:02:29;101047.06;;;23.78;43.59
76627;BME280;65519;53.230;10.390;2023-07-13T12:04:57;101036.81;;;23.70;42.65
76627;BME280;65519;53.230;10.390;2023-07-13T12:07:23;101043.94;;;23.68;42.09
76627;BME280;65519;53.230;10.390;2023-07-13T12:09:48;101039.19;;;23.68;41.00
76627;BME280;65519;53.230;10.390;2023-07-13T12:12:21;101044.50;;;23.61;41.91
76627;BME280;65519;53.230;10.390;2023-07-13T12:14:51;101048.22;;;23.53;42.54
76627;BME280;65519;53.230;10.390;2023-07-13T12:17:22;101051.91;;;23.45;42.21
76627;BME280;65519;53.230;10.390;2023-07-13T12:19:48;101052.09;;;23.27;42.65
76627;BME280;65519;53.230;10.390;2023-07-13T12:22:16;101047.06;;;22.97;43.23
76627;BME280;65519;53.230;10.390;2023-07-13T12:24:43;101053.22;;;22.69;43.45
76627;BME280;65519;53.230;10.390;2023-07-13T12:27:20;101057.25;;;22.72;44.26
76627;BME280;65519;53.230;10.390;2023-07-13T12:32:19;101061.00;;;22.76;45.91
76627;BME280;65519;53.230;10.390;2023-07-13T12:35:15;101073.56;;;22.40;47.27
76627;BME280;65519;53.230;10.390;2023-07-13T12:37:46;101072.22;;;22.05;49.06
76627;BME280;65519;53.230;10.390;2023-07-13T12:40:16;101075.75;;;22.14;48.96
76627;BME280;65519;53.230;10.390;2023-07-13T12:42:46;101064.25;;;21.95;49.32
76627;BME280;65519;53.230;10.390;2023-07-13T12:45:20;101076.50;;;21.94;49.60
76627;BME280;65519;53.230;10.390;2023-07-13T12:47:53;101074.56;;;21.85;50.03
76627;BME280;65519;53.230;10.390;2023-07-13T12:50:22;101083.97;;;21.72;51.29
76627;BME280;65519;53.230;10.390;2023-07-13T12:52:56;101099.66;;;21.68;50.90
76627;BME280;65519;53.230;10.390;2023-07-13T12:55:24;101111.66;;;21.43;51.78
76627;BME280;65519;53.230;10.390;2023-07-13T12:57:54;101110.84;;;21.42;51.45
76627;BME280;65519;53.230;10.390;2023-07-13T13:00:28;101133.72;;;21.39;51.48
76627;BME280;65519;53.230;10.390;2023-07-13T13:02:56;101153.78;;;20.33;54.43
76627;BME280;65519;53.230;10.390;2023-07-13T13:05:25;101180.38;;;20.03;58.80
76627;BME280;65519;53.230;10.390;2023-07-13T13:07:51;101193.78;;;19.25;61.95
76627;BME280;65519;53.230;10.390;2023-07-13T13:10:17;101199.97;;;19.00;64.41
76627;BME280;65519;53.230;10.390;2023-07-13T13:12:43;101219.97;;;18.83;66.86
76627;BME280;65519;53.230;10.390;2023-07-13T13:15:10;101226.13;;;18.53;69.46
76627;BME280;65519;53.230;10.390;2023-07-13T13:17:37;101230.47;;;18.32;71.88
76627;BME280;65519;53.230;10.390;2023-07-13T13:20:19;101237.00;;;17.95;73.92
76627;BME280;65519;53.230;10.390;2023-07-13T13:22:45;101240.06;;;18.07;74.57
76627;BME280;65519;53.230;10.390;2023-07-13T13:25:12;101219.13;;;18.33;75.01
76627;BME280;65519;53.230;10.390;2023-07-13T13:27:39;101222.56;;;18.39;74.47
76627;BME280;65519;53.230;10.390;2023-07-13T13:30:17;101223.38;;;18.53;74.34